createdAt,value
2022-08-03T00:00:48.808Z,2.30
2022-08-03T00:01:51.149Z,2.55
2022-08-03T00:02:53.688Z,3.00
2022-08-03T00:03:55.977Z,2.70
2022-08-03T00:04:58.239Z,3.28
2022-08-03T00:06:02.653Z,2.75
2022-08-03T00:07:07.162Z,3.08
2022-08-03T00:08:09.353Z,2.65
2022-08-03T00:09:11.676Z,2.80
2022-08-03T00:10:14.280Z,2.58
2022-08-03T00:11:16.780Z,2.88
2022-08-03T00:12:19.110Z,2.80
2022-08-03T00:13:21.409Z,2.63
2022-08-03T00:14:23.592Z,2.70
2022-08-03T00:15:25.862Z,2.55
2022-08-03T00:16:28.109Z,2.88
2022-08-03T00:17:30.326Z,2.55
2022-08-03T00:18:53.058Z,2.65
2022-08-03T00:19:55.259Z,2.85
2022-08-03T00:20:57.863Z,2.80
2022-08-03T00:22:00.031Z,2.80
2022-08-03T00:23:02.223Z,3.00
2022-08-03T00:24:04.822Z,3.10
2022-08-03T00:25:07.327Z,2.60
2022-08-03T00:26:09.714Z,2.97
2022-08-03T00:27:11.892Z,2.65
2022-08-03T00:28:18.803Z,2.50
2022-08-03T00:29:21.386Z,2.63
2022-08-03T00:30:23.618Z,2.75
2022-08-03T00:31:45.036Z,3.05
2022-08-03T00:32:52.920Z,2.90
2022-08-03T00:33:58.906Z,2.45
2022-08-03T00:35:07.062Z,2.60
2022-08-03T00:36:10.607Z,2.28
2022-08-03T00:37:12.833Z,3.00
2022-08-03T00:38:15.156Z,2.85
2022-08-03T00:39:17.306Z,3.05
2022-08-03T00:40:20.279Z,2.92
2022-08-03T00:41:22.633Z,2.90
2022-08-03T00:42:28.461Z,2.50
2022-08-03T00:43:31.042Z,3.05
2022-08-03T00:44:40.099Z,2.70
2022-08-03T00:45:43.416Z,3.08
2022-08-03T00:46:45.566Z,3.17
2022-08-03T00:47:48.461Z,2.70
2022-08-03T00:48:51.182Z,2.75
2022-08-03T00:49:53.488Z,2.90
2022-08-03T00:50:55.855Z,2.40
2022-08-03T00:51:59.412Z,2.80
2022-08-03T00:53:04.032Z,2.88
2022-08-03T00:54:06.246Z,2.30
2022-08-03T00:55:09.607Z,2.60
2022-08-03T00:56:15.827Z,2.70
2022-08-03T00:57:18.061Z,2.97
2022-08-03T00:58:20.415Z,2.53
2022-08-03T00:59:23.169Z,3.13
2022-08-03T01:00:27.513Z,2.60
2022-08-03T01:01:32.507Z,2.95
2022-08-03T01:02:35.476Z,2.97
2022-08-03T01:03:37.786Z,2.60
2022-08-03T01:04:39.947Z,2.85
2022-08-03T01:05:53.507Z,2.92
2022-08-03T01:07:11.048Z,2.97
2022-08-03T01:08:38.375Z,2.83
2022-08-03T01:10:01.863Z,2.72
2022-08-03T01:11:16.172Z,3.05
2022-08-03T01:12:29.708Z,3.00
2022-08-03T01:14:04.734Z,2.47
2022-08-03T01:15:07.758Z,2.75
2022-08-03T01:16:17.074Z,4.72
2022-08-03T01:17:48.880Z,2.30
2022-08-03T01:19:29.186Z,3.00
2022-08-03T01:20:38.387Z,2.70
2022-08-03T01:22:04.515Z,2.20
2022-08-03T01:23:36.562Z,2.08
2022-08-03T01:25:14.559Z,2.58
2022-08-03T01:26:28.528Z,2.58
2022-08-03T01:27:52.780Z,3.00
2022-08-03T01:29:08.964Z,2.38
2022-08-03T01:30:12.526Z,2.15
2022-08-03T01:31:21.969Z,2.28
2022-08-03T01:33:16.817Z,2.63
2022-08-03T01:34:21.519Z,2.55
2022-08-03T01:35:38.352Z,2.50
2022-08-03T01:36:48.816Z,2.92
2022-08-03T01:38:00.781Z,2.60
2022-08-03T01:39:09.403Z,2.78
2022-08-03T01:40:14.377Z,3.38
2022-08-03T01:41:24.953Z,3.15
2022-08-03T01:42:29.525Z,2.42
2022-08-03T01:44:26.629Z,2.45
2022-08-03T01:44:57.249Z,2.80
2022-08-03T01:45:59.887Z,2.60
2022-08-03T01:47:03.324Z,2.67
2022-08-03T01:48:07.495Z,3.20
2022-08-03T01:49:13.425Z,2.60
2022-08-03T01:50:19.272Z,3.03
2022-08-03T01:51:22.856Z,2.53
2022-08-03T01:52:26.375Z,2.58
2022-08-03T01:53:31.449Z,2.90
2022-08-03T01:54:40.638Z,2.70
2022-08-03T01:55:48.919Z,2.65
2022-08-03T01:56:53.064Z,3.15
2022-08-03T01:58:05.937Z,2.45
2022-08-03T01:59:11.794Z,2.50
2022-08-03T02:00:14.768Z,2.75
2022-08-03T02:01:20.794Z,2.78
2022-08-03T02:02:33.522Z,3.08
2022-08-03T02:04:00.213Z,2.83
2022-08-03T02:05:04.950Z,3.00
2022-08-03T02:06:59.228Z,2.90
2022-08-03T02:07:34.773Z,2.45
2022-08-03T02:08:39.090Z,2.83
2022-08-03T02:09:43.890Z,2.63
2022-08-03T02:10:47.558Z,2.47
2022-08-03T02:11:52.030Z,3.08
2022-08-03T02:12:55.507Z,2.47
2022-08-03T02:14:00.898Z,2.85
2022-08-03T02:15:04.848Z,2.70
2022-08-03T02:16:08.493Z,3.55
2022-08-03T02:17:11.186Z,3.28
2022-08-03T02:18:14.558Z,3.00
2022-08-03T02:19:18.275Z,3.40
2022-08-03T02:20:21.421Z,3.17
2022-08-03T02:21:57.272Z,3.33
2022-08-03T02:22:47.156Z,3.15
2022-08-03T02:23:50.136Z,2.95
2022-08-03T02:24:52.549Z,2.97
2022-08-03T02:26:00.106Z,2.75
2022-08-03T02:27:10.608Z,3.25
2022-08-03T02:28:20.120Z,2.88
2022-08-03T02:29:40.168Z,2.95
2022-08-03T02:30:46.948Z,3.10
2022-08-03T02:32:00.288Z,3.55
2022-08-03T02:33:04.223Z,2.88
2022-08-03T02:34:13.382Z,3.25
2022-08-03T02:35:18.535Z,3.10
2022-08-03T02:36:25.351Z,3.10
2022-08-03T02:37:31.376Z,3.58
2022-08-03T02:38:36.871Z,3.10
2022-08-03T02:39:40.699Z,2.90
2022-08-03T02:40:44.930Z,2.72
2022-08-03T02:41:55.323Z,2.85
2022-08-03T02:43:02.477Z,3.50
2022-08-03T02:44:09.357Z,3.75
2022-08-03T02:45:14.006Z,3.50
2022-08-03T02:46:19.871Z,3.25
2022-08-03T02:47:23.996Z,3.05
2022-08-03T02:48:30.583Z,3.05
2022-08-03T02:52:25.715Z,3.80
2022-08-03T02:53:30.691Z,3.25
2022-08-03T02:54:34.395Z,3.55
2022-08-03T02:55:43.194Z,3.10
2022-08-03T02:56:49.887Z,3.42
2022-08-03T02:57:54.232Z,3.78
2022-08-03T02:58:58.426Z,3.90
2022-08-03T03:00:02.276Z,3.85
2022-08-03T03:01:05.434Z,3.42
2022-08-03T03:02:08.006Z,3.70
2022-08-03T03:03:11.346Z,3.13
2022-08-03T03:04:16.451Z,3.70
2022-08-03T03:05:53.655Z,3.47
2022-08-03T03:06:42.136Z,3.72
2022-08-03T03:07:51.451Z,3.67
2022-08-03T03:08:59.617Z,3.42
2022-08-03T03:10:05.324Z,3.50
2022-08-03T03:11:08.854Z,4.40
2022-08-03T03:12:13.333Z,3.88
2022-08-03T03:13:17.646Z,3.42
2022-08-03T03:14:33.460Z,3.45
2022-08-03T03:15:39.323Z,3.58
2022-08-03T03:16:44.482Z,4.05
2022-08-03T03:17:53.690Z,4.22
2022-08-03T03:18:57.274Z,4.20
2022-08-03T03:20:00.725Z,4.03
2022-08-03T03:21:04.409Z,3.80
2022-08-03T03:22:08.582Z,4.05
2022-08-03T03:23:11.611Z,3.55
2022-08-03T03:24:15.079Z,3.72
2022-08-03T03:25:17.666Z,3.97
2022-08-03T03:26:20.176Z,3.80
2022-08-03T03:27:23.142Z,3.95
2022-08-03T03:28:26.238Z,3.97
2022-08-03T03:29:28.842Z,4.10
2022-08-03T03:30:31.429Z,4.05
2022-08-03T03:31:33.736Z,3.65
2022-08-03T03:32:39.930Z,3.80
2022-08-03T03:33:42.516Z,4.63
2022-08-03T03:34:45.010Z,3.53
2022-08-03T03:35:47.847Z,4.45
2022-08-03T03:36:50.382Z,4.47
2022-08-03T03:37:52.924Z,4.10
2022-08-03T03:38:55.212Z,4.30
2022-08-03T03:39:57.483Z,4.82
2022-08-03T03:41:00.867Z,4.30
2022-08-03T03:42:04.674Z,4.45
2022-08-03T03:43:11.728Z,4.32
2022-08-03T03:44:14.070Z,4.35
2022-08-03T03:45:16.641Z,4.47
2022-08-03T03:46:18.907Z,4.13
2022-08-03T03:47:32.730Z,4.82
2022-08-03T03:48:35.276Z,4.65
2022-08-03T03:49:37.867Z,4.28
2022-08-03T03:50:43.315Z,5.00
2022-08-03T03:51:45.484Z,4.65
2022-08-03T03:52:47.669Z,5.28
2022-08-03T03:53:56.381Z,5.03
2022-08-03T03:55:00.987Z,4.18
2022-08-03T03:56:04.299Z,4.97
2022-08-03T03:57:06.477Z,4.45
2022-08-03T03:58:08.758Z,3.67
2022-08-03T03:59:10.923Z,4.68
2022-08-03T04:00:14.990Z,4.25
2022-08-03T04:01:17.668Z,5.43
2022-08-03T04:02:19.879Z,4.80
2022-08-03T04:03:22.128Z,4.55
2022-08-03T04:04:42.591Z,4.45
2022-08-03T04:06:03.409Z,4.13
2022-08-03T04:07:23.848Z,5.07
2022-08-03T04:08:44.452Z,4.88
2022-08-03T04:10:14.895Z,3.92
2022-08-03T04:11:20.039Z,4.65
2022-08-03T04:12:32.482Z,4.68
2022-08-03T04:13:40.880Z,4.63
2022-08-03T04:14:44.213Z,4.75
2022-08-03T04:15:47.913Z,4.85
2022-08-03T04:17:07.433Z,4.15
2022-08-03T04:18:13.722Z,4.35
2022-08-03T04:19:23.631Z,4.40
2022-08-03T04:20:29.667Z,4.30
2022-08-03T04:21:34.557Z,4.88
2022-08-03T04:22:39.453Z,4.50
2022-08-03T04:23:44.649Z,4.47
2022-08-03T04:24:53.687Z,4.90
2022-08-03T04:25:57.782Z,4.80
2022-08-03T04:27:02.717Z,4.43
2022-08-03T04:28:08.095Z,5.07
2022-08-03T04:29:33.146Z,5.53
2022-08-03T04:30:38.774Z,4.10
2022-08-03T04:31:42.082Z,4.95
2022-08-03T04:32:50.727Z,5.50
2022-08-03T04:33:54.402Z,5.28
2022-08-03T04:34:57.028Z,4.60
2022-08-03T04:36:02.695Z,5.32
2022-08-03T04:37:11.972Z,4.95
2022-08-03T04:38:18.463Z,5.07
2022-08-03T04:39:27.816Z,4.82
2022-08-03T04:40:39.895Z,5.72
2022-08-03T04:42:04.771Z,6.55
2022-08-03T04:43:09.042Z,5.47
2022-08-03T04:44:13.479Z,5.60
2022-08-03T04:45:17.500Z,5.45
2022-08-03T04:46:24.161Z,5.55
2022-08-03T04:47:27.115Z,5.28
2022-08-03T04:48:29.609Z,5.82
2022-08-03T04:49:32.426Z,6.10
2022-08-03T04:50:34.945Z,5.97
2022-08-03T04:51:40.571Z,5.72
2022-08-03T04:52:43.154Z,6.28
2022-08-03T04:53:45.460Z,5.63
2022-08-03T04:54:50.968Z,5.85
2022-08-03T04:55:53.398Z,6.15
2022-08-03T04:56:55.577Z,6.18
2022-08-03T04:57:59.114Z,6.50
2022-08-03T04:59:01.317Z,6.68
2022-08-03T05:00:05.673Z,6.78
2022-08-03T05:01:07.947Z,5.72
2022-08-03T05:02:10.295Z,6.03
2022-08-03T05:03:20.297Z,6.78
2022-08-03T05:04:26.554Z,6.13
2022-08-03T05:05:48.752Z,5.72
2022-08-03T05:06:54.826Z,6.22
2022-08-03T05:07:57.451Z,6.35
2022-08-03T05:09:03.706Z,5.80
2022-08-03T05:10:10.162Z,6.05
2022-08-03T05:11:18.010Z,5.93
2022-08-03T05:12:20.216Z,6.65
2022-08-03T05:13:22.501Z,6.63
2022-08-03T05:14:28.066Z,7.43
2022-08-03T05:15:30.553Z,7.70
2022-08-03T05:16:32.739Z,7.00
2022-08-03T05:17:34.984Z,6.00
2022-08-03T05:18:37.263Z,6.57
2022-08-03T05:19:39.471Z,6.97
2022-08-03T05:20:41.838Z,7.20
2022-08-03T05:21:52.435Z,6.30
2022-08-03T05:22:55.318Z,6.93
2022-08-03T05:23:57.514Z,5.78
2022-08-03T05:25:01.711Z,6.25
2022-08-03T05:26:04.323Z,6.05
2022-08-03T05:27:06.500Z,5.88
2022-08-03T05:28:08.755Z,6.50
2022-08-03T05:29:10.909Z,7.80
2022-08-03T05:30:32.315Z,6.88
2022-08-03T05:31:35.486Z,6.47
2022-08-03T05:32:37.837Z,6.63
2022-08-03T05:33:40.978Z,6.95
2022-08-03T05:34:43.912Z,6.93
2022-08-03T05:36:03.609Z,6.38
2022-08-03T05:37:07.406Z,5.82
2022-08-03T05:38:10.330Z,6.35
2022-08-03T05:39:12.943Z,6.40
2022-08-03T05:40:15.189Z,6.53
2022-08-03T05:41:22.168Z,6.28
2022-08-03T05:42:26.025Z,5.85
2022-08-03T05:43:32.000Z,6.05
2022-08-03T05:44:34.324Z,5.68
2022-08-03T05:45:37.253Z,5.68
2022-08-03T05:46:39.469Z,5.82
2022-08-03T05:47:44.231Z,6.20
2022-08-03T05:48:46.536Z,6.05
2022-08-03T05:49:48.732Z,5.47
2022-08-03T05:50:51.065Z,5.43
2022-08-03T05:52:00.424Z,5.65
2022-08-03T05:53:15.757Z,5.45
2022-08-03T05:54:18.125Z,5.55
2022-08-03T05:55:20.378Z,5.07
2022-08-03T05:56:26.756Z,5.93
2022-08-03T05:57:29.012Z,6.45
2022-08-03T05:58:31.257Z,5.60
2022-08-03T05:59:39.108Z,5.50
2022-08-03T06:00:41.392Z,5.25
2022-08-03T06:01:43.629Z,5.60
2022-08-03T06:02:45.877Z,5.30
2022-08-03T06:03:49.328Z,5.03
2022-08-03T06:04:51.487Z,5.10
2022-08-03T06:06:00.344Z,6.15
2022-08-03T06:07:03.483Z,5.32
2022-08-03T06:08:05.880Z,5.85
2022-08-03T06:09:08.057Z,6.22
2022-08-03T06:10:36.426Z,5.25
2022-08-03T06:11:32.527Z,5.57
2022-08-03T06:12:36.221Z,4.45
2022-08-03T06:13:39.677Z,5.15
2022-08-03T06:14:41.848Z,4.63
2022-08-03T06:15:44.101Z,4.63
2022-08-03T06:16:46.279Z,4.43
2022-08-03T06:17:49.664Z,5.22
2022-08-03T06:18:51.872Z,4.63
2022-08-03T06:19:54.818Z,5.50
2022-08-03T06:20:57.161Z,4.65
2022-08-03T06:21:59.385Z,5.35
2022-08-03T06:23:02.844Z,4.95
2022-08-03T06:24:06.291Z,5.10
2022-08-03T06:25:12.877Z,4.65
2022-08-03T06:26:16.483Z,5.28
2022-08-03T06:27:18.691Z,4.85
2022-08-03T06:28:51.826Z,4.18
2022-08-03T06:29:43.026Z,4.97
2022-08-03T06:30:45.580Z,4.97
2022-08-03T06:31:47.825Z,5.20
2022-08-03T06:32:52.162Z,4.60
2022-08-03T06:34:33.567Z,4.80
2022-08-03T06:35:17.026Z,4.65
2022-08-03T06:36:19.205Z,4.80
2022-08-03T06:37:21.407Z,5.30
2022-08-03T06:38:23.548Z,4.97
2022-08-03T06:39:25.706Z,5.43
2022-08-03T06:40:31.402Z,4.70
2022-08-03T06:41:37.414Z,4.63
2022-08-03T06:42:44.134Z,4.47
2022-08-03T06:44:03.948Z,4.00
2022-08-03T06:45:08.928Z,4.70
2022-08-03T06:46:11.315Z,4.55
2022-08-03T06:47:13.587Z,3.95
2022-08-03T06:48:15.853Z,3.90
2022-08-03T06:49:18.191Z,4.88
2022-08-03T06:50:24.287Z,4.38
2022-08-03T06:52:03.900Z,4.07
2022-08-03T06:52:50.528Z,3.85
2022-08-03T06:53:52.703Z,3.63
2022-08-03T06:54:55.635Z,4.13
2022-08-03T06:55:58.067Z,3.60
2022-08-03T06:57:00.399Z,3.80
2022-08-03T06:58:03.411Z,3.83
2022-08-03T06:59:05.988Z,4.88
2022-08-03T07:00:12.495Z,3.97
2022-08-03T07:01:15.498Z,3.47
2022-08-03T07:02:21.237Z,3.38
2022-08-03T07:03:23.748Z,4.32
2022-08-03T07:04:25.928Z,3.70
2022-08-03T07:05:28.403Z,4.28
2022-08-03T07:06:31.594Z,3.85
2022-08-03T07:07:33.903Z,3.05
2022-08-03T07:08:36.118Z,3.75
2022-08-03T07:09:38.339Z,3.42
2022-08-03T07:10:41.790Z,3.30
2022-08-03T07:11:43.974Z,5.70
2022-08-03T07:12:55.653Z,3.00
2022-08-03T07:13:58.454Z,3.30
2022-08-03T07:15:03.212Z,3.90
2022-08-03T07:16:06.021Z,2.95
2022-08-03T07:17:11.519Z,2.67
2022-08-03T07:18:14.172Z,3.50
2022-08-03T07:19:16.444Z,2.78
2022-08-03T07:20:19.256Z,3.15
2022-08-03T07:21:21.411Z,3.03
2022-08-03T07:22:23.669Z,3.03
2022-08-03T07:23:25.901Z,3.13
2022-08-03T07:24:29.151Z,2.90
2022-08-03T07:25:31.367Z,2.72
2022-08-03T07:26:33.799Z,3.17
2022-08-03T07:27:37.043Z,2.90
2022-08-03T07:28:39.198Z,2.78
2022-08-03T07:29:41.386Z,3.42
2022-08-03T07:30:43.589Z,3.08
2022-08-03T07:31:45.959Z,3.20
2022-08-03T07:32:50.730Z,3.00
2022-08-03T07:33:53.483Z,2.50
2022-08-03T07:35:00.332Z,2.95
2022-08-03T07:36:03.206Z,2.75
2022-08-03T07:37:05.429Z,3.28
2022-08-03T07:38:07.657Z,3.67
2022-08-03T07:39:16.656Z,2.55
2022-08-03T07:40:20.197Z,2.90
2022-08-03T07:41:22.358Z,2.83
2022-08-03T07:42:24.581Z,2.55
2022-08-03T07:43:26.754Z,2.33
2022-08-03T07:44:28.995Z,2.67
2022-08-03T07:45:32.017Z,3.55
2022-08-03T07:46:34.317Z,3.30
2022-08-03T07:47:36.567Z,3.13
2022-08-03T07:48:38.774Z,2.47
2022-08-03T07:49:41.720Z,2.58
2022-08-03T07:50:44.087Z,2.70
2022-08-03T07:52:06.211Z,2.30
2022-08-03T07:53:08.734Z,2.45
2022-08-03T07:54:11.415Z,2.80
2022-08-03T07:55:16.288Z,2.30
2022-08-03T07:56:19.603Z,2.75
2022-08-03T07:57:21.786Z,2.65
2022-08-03T07:58:24.572Z,2.60
2022-08-03T07:59:26.825Z,2.60
2022-08-03T08:00:29.169Z,2.47
2022-08-03T08:01:34.128Z,2.28
2022-08-03T08:02:36.579Z,2.65
2022-08-03T08:03:41.156Z,2.55
2022-08-03T08:04:55.484Z,2.28
2022-08-03T08:05:57.710Z,2.80
2022-08-03T08:06:59.877Z,2.20
2022-08-03T08:08:03.118Z,2.83
2022-08-03T08:09:05.294Z,2.80
2022-08-03T08:10:09.996Z,2.70
2022-08-03T08:11:12.389Z,2.03
2022-08-03T08:12:15.021Z,2.20
2022-08-03T08:13:18.027Z,2.58
2022-08-03T08:14:20.260Z,2.05
2022-08-03T08:15:22.667Z,2.38
2022-08-03T08:16:24.886Z,2.58
2022-08-03T08:17:27.379Z,2.95
2022-08-03T08:18:29.765Z,2.60
2022-08-03T08:19:31.955Z,2.72
2022-08-03T08:20:39.043Z,2.90
2022-08-03T08:22:01.838Z,2.50
2022-08-03T08:23:19.275Z,2.30
2022-08-03T08:24:30.473Z,2.30
2022-08-03T08:25:34.380Z,2.42
2022-08-03T08:26:37.150Z,2.33
2022-08-03T08:28:29.284Z,2.45
2022-08-03T08:30:18.760Z,2.40
2022-08-03T08:31:21.447Z,2.10
2022-08-03T08:32:24.904Z,1.90
2022-08-03T08:33:37.429Z,1.98
2022-08-03T08:34:44.649Z,2.00
2022-08-03T08:35:46.806Z,2.47
2022-08-03T08:36:49.024Z,1.92
2022-08-03T08:37:51.515Z,2.50
2022-08-03T08:38:53.779Z,2.03
2022-08-03T08:39:56.783Z,1.92
2022-08-03T08:40:58.978Z,1.90
2022-08-03T08:42:01.227Z,2.42
2022-08-03T08:43:03.689Z,2.10
2022-08-03T08:44:08.250Z,1.80
2022-08-03T08:45:11.985Z,2.00
2022-08-03T08:46:23.298Z,2.33
2022-08-03T08:47:30.210Z,1.98
2022-08-03T08:48:54.297Z,1.80
2022-08-03T08:50:09.382Z,2.25
2022-08-03T08:51:13.992Z,1.83
2022-08-03T08:52:24.818Z,1.58
2022-08-03T08:53:29.630Z,1.92
2022-08-03T08:54:33.355Z,1.92
2022-08-03T08:55:59.470Z,1.90
2022-08-03T08:57:02.804Z,2.10
2022-08-03T08:58:10.792Z,1.42
2022-08-03T08:59:13.661Z,1.92
2022-08-03T09:00:17.185Z,1.77
2022-08-03T09:01:20.454Z,2.00
2022-08-03T09:02:26.126Z,1.75
2022-08-03T09:03:29.538Z,2.10
2022-08-03T09:04:33.499Z,1.80
2022-08-03T09:05:54.847Z,1.83
2022-08-03T09:07:18.763Z,2.42
2022-08-03T09:08:21.778Z,2.22
2022-08-03T09:10:08.174Z,1.75
2022-08-03T09:10:46.106Z,1.70
2022-08-03T09:11:52.412Z,1.63
2022-08-03T09:13:08.047Z,1.63
2022-08-03T09:14:11.165Z,1.30
2022-08-03T09:15:33.727Z,2.22
2022-08-03T09:16:35.965Z,1.77
2022-08-03T09:17:41.348Z,2.38
2022-08-03T09:18:45.946Z,1.40
2022-08-03T09:20:07.791Z,1.27
2022-08-03T09:21:36.295Z,1.60
2022-08-03T09:23:59.721Z,2.30
2022-08-03T09:24:41.199Z,1.65
2022-08-03T09:25:44.043Z,2.42
2022-08-03T09:26:51.895Z,1.58
2022-08-03T09:28:04.551Z,1.33
2022-08-03T09:29:14.400Z,1.55
2022-08-03T09:30:33.276Z,1.90
2022-08-03T09:31:39.578Z,1.93
2022-08-03T09:32:46.783Z,1.80
2022-08-03T09:33:49.216Z,1.50
2022-08-03T09:34:57.820Z,1.50
2022-08-03T09:36:00.399Z,2.05
2022-08-03T09:37:02.646Z,1.38
2022-08-03T09:38:14.139Z,1.70
2022-08-03T09:39:18.979Z,1.52
2022-08-03T09:40:36.856Z,2.33
2022-08-03T09:41:41.498Z,1.40
2022-08-03T09:42:56.710Z,1.23
2022-08-03T09:43:59.312Z,1.88
2022-08-03T09:45:01.659Z,1.35
2022-08-03T09:46:05.723Z,1.88
2022-08-03T09:47:10.146Z,1.65
2022-08-03T09:48:25.724Z,1.40
2022-08-03T09:49:28.021Z,1.70
2022-08-03T09:50:31.300Z,1.70
2022-08-03T09:52:32.782Z,1.42
2022-08-03T09:53:02.140Z,1.30
2022-08-03T09:54:07.595Z,1.42
2022-08-03T09:56:34.313Z,1.98
2022-08-03T09:56:42.513Z,1.27
2022-08-03T09:57:46.399Z,1.70
2022-08-03T09:58:48.782Z,0.88
2022-08-03T09:59:54.984Z,1.77
2022-08-03T10:01:24.046Z,1.50
2022-08-03T10:02:27.929Z,1.42
2022-08-03T10:03:32.803Z,1.63
2022-08-03T10:04:48.389Z,1.35
2022-08-03T10:05:52.978Z,1.52
2022-08-03T10:07:09.477Z,2.03
2022-08-03T10:08:21.321Z,1.35
2022-08-03T10:09:23.539Z,1.40
2022-08-03T10:10:31.199Z,1.35
2022-08-03T10:11:40.933Z,1.42
2022-08-03T10:12:44.868Z,1.47
2022-08-03T10:13:48.329Z,1.73
2022-08-03T10:14:51.066Z,1.90
2022-08-03T10:16:23.957Z,2.58
2022-08-03T10:17:15.758Z,1.85
2022-08-03T10:18:18.168Z,1.48
2022-08-03T10:19:20.383Z,2.22
2022-08-03T10:20:22.702Z,1.67
2022-08-03T10:21:26.506Z,1.40
2022-08-03T10:22:34.314Z,1.73
2022-08-03T10:23:38.615Z,1.70
2022-08-03T10:24:49.537Z,1.92
2022-08-03T10:25:58.053Z,1.90
2022-08-03T10:27:07.146Z,1.48
2022-08-03T10:28:13.246Z,1.40
2022-08-03T10:29:25.106Z,1.60
2022-08-03T10:30:28.349Z,1.90
2022-08-03T10:31:38.424Z,1.60
2022-08-03T10:33:05.218Z,1.80
2022-08-03T10:35:32.349Z,1.40
2022-08-03T10:36:36.864Z,1.35
2022-08-03T10:37:56.587Z,1.40
2022-08-03T10:40:03.463Z,1.92
2022-08-03T10:41:06.936Z,2.15
2022-08-03T10:42:14.652Z,1.60
2022-08-03T10:43:21.720Z,1.60
2022-08-03T10:44:26.205Z,1.73
2022-08-03T10:45:28.590Z,1.70
2022-08-03T10:46:33.362Z,1.40
2022-08-03T10:47:36.762Z,1.20
2022-08-03T10:48:39.478Z,1.45
2022-08-03T10:49:42.109Z,1.27
2022-08-03T10:50:45.850Z,1.90
2022-08-03T10:51:54.326Z,1.88
2022-08-03T10:53:03.938Z,1.70
2022-08-03T10:54:06.382Z,1.70
2022-08-03T10:55:55.640Z,1.75
2022-08-03T10:57:16.482Z,1.50
2022-08-03T10:58:53.425Z,1.85
2022-08-03T11:00:02.753Z,1.40
2022-08-03T11:01:06.435Z,1.38
2022-08-03T11:02:09.958Z,1.63
2022-08-03T11:03:17.685Z,1.92
2022-08-03T11:04:21.530Z,1.20
2022-08-03T11:05:28.490Z,1.98
2022-08-03T11:06:37.255Z,1.70
2022-08-03T11:07:40.025Z,1.60
2022-08-03T11:08:42.327Z,1.58
2022-08-03T11:09:49.689Z,2.00
2022-08-03T11:11:01.067Z,1.95
2022-08-03T11:12:30.347Z,1.90
2022-08-03T11:13:34.166Z,1.58
2022-08-03T11:14:48.179Z,1.70
2022-08-03T11:15:53.463Z,1.90
2022-08-03T11:17:14.455Z,1.38
2022-08-03T11:18:17.385Z,1.77
2022-08-03T11:19:27.963Z,1.50
2022-08-03T11:20:50.785Z,1.30
2022-08-03T11:21:54.246Z,1.65
2022-08-03T11:22:58.818Z,1.60
2022-08-03T11:24:05.125Z,2.22
2022-08-03T11:25:08.795Z,2.15
2022-08-03T11:26:31.008Z,2.53
2022-08-03T11:27:33.841Z,2.30
2022-08-03T11:28:38.833Z,2.00
2022-08-03T11:30:07.480Z,1.88
2022-08-03T11:31:46.738Z,1.50
2022-08-03T11:32:46.764Z,2.10
2022-08-03T11:34:10.531Z,1.85
2022-08-03T11:35:15.363Z,2.30
2022-08-03T11:36:32.423Z,1.30
2022-08-03T11:37:35.133Z,2.42
2022-08-03T11:39:13.019Z,1.98
2022-08-03T11:40:40.310Z,1.80
2022-08-03T11:41:44.982Z,2.53
2022-08-03T11:42:48.270Z,1.88
2022-08-03T11:43:50.564Z,2.42
2022-08-03T11:44:54.644Z,1.90
2022-08-03T11:46:29.558Z,2.55
2022-08-03T11:47:37.081Z,2.42
2022-08-03T11:48:53.231Z,2.17
2022-08-03T11:49:59.099Z,2.50
2022-08-03T11:51:02.769Z,2.00
2022-08-03T11:52:05.124Z,2.42
2022-08-03T11:53:07.706Z,1.83
2022-08-03T11:54:11.400Z,2.47
2022-08-03T11:55:16.740Z,3.15
2022-08-03T11:56:20.254Z,3.05
2022-08-03T11:58:58.382Z,1.80
2022-08-03T11:59:18.124Z,1.85
2022-08-03T12:00:31.143Z,2.85
2022-08-03T12:01:33.414Z,1.58
2022-08-03T12:02:36.244Z,2.30
2022-08-03T12:03:38.523Z,2.35
2022-08-03T12:04:58.717Z,2.00
2022-08-03T12:06:04.754Z,2.28
2022-08-03T12:07:06.870Z,2.28
2022-08-03T12:08:10.700Z,2.67
2022-08-03T12:09:16.390Z,2.42
2022-08-03T12:10:19.278Z,2.10
2022-08-03T12:11:21.908Z,2.10
2022-08-03T12:12:24.125Z,2.53
2022-08-03T12:14:45.644Z,1.98
2022-08-03T12:14:59.238Z,2.38
2022-08-03T12:16:02.276Z,2.88
2022-08-03T12:17:05.188Z,2.28
2022-08-03T12:18:18.827Z,2.17
2022-08-03T12:19:21.003Z,1.98
2022-08-03T12:20:35.294Z,1.92
2022-08-03T12:21:57.147Z,1.92
2022-08-03T12:23:05.325Z,1.90
2022-08-03T12:24:07.731Z,2.40
2022-08-03T12:25:20.180Z,1.80
2022-08-03T12:26:56.785Z,2.13
2022-08-03T12:28:31.801Z,1.92
2022-08-03T12:29:32.960Z,2.08
2022-08-03T12:30:36.330Z,2.35
2022-08-03T12:31:38.574Z,1.98
2022-08-03T12:32:43.699Z,2.45
2022-08-03T12:33:59.367Z,3.05
2022-08-03T12:35:04.417Z,1.85
2022-08-03T12:36:09.104Z,1.90
2022-08-03T12:37:18.990Z,1.83
2022-08-03T12:38:24.600Z,1.80
2022-08-03T12:39:30.921Z,2.53
2022-08-03T12:40:33.614Z,1.48
2022-08-03T12:41:38.730Z,2.42
2022-08-03T12:42:40.995Z,1.70
2022-08-03T12:43:49.974Z,1.70
2022-08-03T12:44:56.356Z,1.95
2022-08-03T12:46:09.936Z,2.38
2022-08-03T12:47:12.517Z,2.40
2022-08-03T12:48:14.982Z,2.58
2022-08-03T12:49:19.072Z,1.88
2022-08-03T12:50:28.112Z,1.80
2022-08-03T12:51:32.702Z,1.95
2022-08-03T12:52:45.041Z,1.75
2022-08-03T12:53:55.787Z,2.50
2022-08-03T12:55:01.186Z,1.90
2022-08-03T12:56:06.341Z,1.63
2022-08-03T12:57:16.043Z,2.10
2022-08-03T12:58:34.241Z,2.20
2022-08-03T12:59:53.415Z,2.10
2022-08-03T13:00:56.131Z,2.17
2022-08-03T13:01:58.705Z,2.03
2022-08-03T13:03:39.496Z,1.92
2022-08-03T13:04:33.342Z,2.17
2022-08-03T13:05:46.109Z,1.70
2022-08-03T13:07:06.590Z,1.95
2022-08-03T13:08:24.218Z,1.85
2022-08-03T13:09:26.529Z,1.88
2022-08-03T13:10:33.435Z,2.53
2022-08-03T13:11:50.642Z,2.22
2022-08-03T13:13:00.017Z,2.40
2022-08-03T13:14:02.856Z,2.08
2022-08-03T13:15:05.537Z,2.28
2022-08-03T13:16:07.770Z,2.28
2022-08-03T13:17:10.107Z,2.22
2022-08-03T13:18:12.285Z,2.33
2022-08-03T13:19:19.027Z,2.55
2022-08-03T13:20:22.075Z,1.80
2022-08-03T13:21:28.878Z,2.13
2022-08-03T13:22:32.938Z,2.20
2022-08-03T13:23:35.183Z,2.28
2022-08-03T13:24:37.429Z,2.25
2022-08-03T13:25:39.607Z,1.48
2022-08-03T13:26:58.355Z,2.85
2022-08-03T13:28:04.415Z,1.80
2022-08-03T13:29:07.925Z,1.50
2022-08-03T13:30:10.440Z,1.60
2022-08-03T13:31:12.731Z,1.75
2022-08-03T13:32:15.057Z,2.20
2022-08-03T13:33:17.633Z,2.20
2022-08-03T13:34:23.505Z,1.80
2022-08-03T13:35:26.286Z,1.95
2022-08-03T13:36:29.935Z,2.35
2022-08-03T13:37:48.876Z,2.25
2022-08-03T13:38:51.313Z,1.90
2022-08-03T13:39:58.768Z,1.52
2022-08-03T13:41:04.969Z,2.88
2022-08-03T13:42:08.618Z,2.10
2022-08-03T13:43:10.842Z,1.90
2022-08-03T13:44:29.316Z,1.92
2022-08-03T13:45:32.092Z,2.13
2022-08-03T13:46:34.481Z,2.10
2022-08-03T13:47:37.775Z,2.45
2022-08-03T13:48:39.970Z,2.45
2022-08-03T13:49:42.138Z,1.50
2022-08-03T13:50:56.666Z,3.00
2022-08-03T13:51:59.215Z,1.90
2022-08-03T13:53:01.453Z,3.15
2022-08-03T13:54:04.206Z,2.17
2022-08-03T13:55:07.455Z,2.03
2022-08-03T13:56:09.782Z,1.90
2022-08-03T13:58:03.903Z,2.85
2022-08-03T13:58:34.674Z,1.60
2022-08-03T13:59:37.456Z,2.53
2022-08-03T14:00:40.003Z,2.88
2022-08-03T14:01:54.923Z,2.22
2022-08-03T14:03:13.293Z,1.58
2022-08-03T14:04:22.241Z,1.80
2022-08-03T14:05:24.827Z,2.00
2022-08-03T14:06:27.028Z,2.05
2022-08-03T14:07:29.190Z,2.72
2022-08-03T14:08:31.403Z,2.17
2022-08-03T14:09:33.614Z,2.33
2022-08-03T14:10:38.467Z,2.20
2022-08-03T14:12:07.701Z,2.00
2022-08-03T14:13:07.445Z,2.45
2022-08-03T14:14:09.742Z,3.03
2022-08-03T14:15:13.066Z,2.03
2022-08-03T14:16:16.921Z,2.10
2022-08-03T14:17:20.193Z,2.33
2022-08-03T14:18:28.673Z,2.25
2022-08-03T14:19:52.538Z,1.95
2022-08-03T14:21:00.672Z,1.80
2022-08-03T14:22:07.147Z,1.80
2022-08-03T14:23:09.396Z,1.95
2022-08-03T14:24:11.571Z,1.58
2022-08-03T14:25:13.858Z,1.75
2022-08-03T14:26:18.317Z,1.70
2022-08-03T14:27:20.648Z,2.30
2022-08-03T14:28:24.557Z,1.88
2022-08-03T14:29:27.004Z,2.17
2022-08-03T14:30:29.478Z,1.60
2022-08-03T14:32:11.804Z,2.25
2022-08-03T14:32:56.879Z,1.98
2022-08-03T14:34:02.788Z,2.17
2022-08-03T14:35:05.422Z,1.77
2022-08-03T14:36:07.700Z,2.08
2022-08-03T14:37:10.064Z,1.95
2022-08-03T14:38:12.259Z,2.10
2022-08-03T14:39:14.522Z,2.85
2022-08-03T14:40:16.761Z,1.92
2022-08-03T14:41:19.955Z,2.85
2022-08-03T14:42:23.646Z,2.33
2022-08-03T14:43:25.874Z,2.30
2022-08-03T14:44:36.092Z,1.77
2022-08-03T14:45:39.111Z,2.30
2022-08-03T14:46:41.299Z,3.03
2022-08-03T14:50:29.466Z,2.75
2022-08-03T14:50:30.417Z,2.42
2022-08-03T14:50:42.864Z,2.10
2022-08-03T14:51:53.389Z,1.63
2022-08-03T14:52:56.368Z,1.40
2022-08-03T14:53:58.568Z,2.22
2022-08-03T14:55:01.106Z,2.17
2022-08-03T14:56:07.938Z,2.63
2022-08-03T14:57:12.205Z,1.38
2022-08-03T14:58:20.546Z,3.67
2022-08-03T14:59:23.514Z,1.85